Time;durP1;ratioP1;P1;durP2;ratioP2;P2;SDS_P1;SDS_P2;PMS_P1;PMS_P2;Temp;Humidity;BMP_temperature;BMP_pressure;BME280_temperature;BME280_humidity;BME280_pressure;Samples;Min_cycle;Max_cycle;Signal;HPM_P1;HPM_P2
2022/04/20 00:02:08;;;;;;;1.60;1.50;;;7.50;84.00;;;;;;616275;233;26574;-68
2022/04/20 00:04:36;;;;;;;1.20;1.20;;;7.60;82.90;;;;;;616191;233;27206;-69
2022/04/20 00:07:03;;;;;;;2.35;1.58;;;7.50;82.80;;;;;;616145;232;26790;-68
2022/04/20 00:09:30;;;;;;;1.83;1.45;;;7.60;83.00;;;;;;615961;232;26617;-68
2022/04/20 00:11:57;;;;;;;1.30;1.20;;;7.60;83.60;;;;;;615938;232;26600;-69
2022/04/20 00:14:26;;;;;;;1.30;1.20;;;7.60;83.60;;;;;;615879;232;26636;-68
2022/04/20 00:16:54;;;;;;;2.45;1.67;;;7.70;82.90;;;;;;615928;232;26595;-68
2022/04/20 00:19:22;;;;;;;1.50;1.40;;;7.70;84.40;;;;;;615920;233;26619;-69
2022/04/20 00:21:49;;;;;;;1.30;1.20;;;7.70;83.70;;;;;;615948;232;26824;-68
2022/04/20 00:24:16;;;;;;;1.58;1.27;;;7.60;83.50;;;;;;615850;233;26630;-69
2022/04/20 00:26:43;;;;;;;1.20;1.20;;;7.60;84.20;;;;;;615677;233;27230;-68
2022/04/20 00:29:11;;;;;;;1.20;1.15;;;7.60;85.60;;;;;;615672;234;26533;-68
2022/04/20 00:31:39;;;;;;;1.85;1.27;;;7.70;85.20;;;;;;615589;234;26565;-68
2022/04/20 00:34:07;;;;;;;1.20;1.20;;;7.70;86.70;;;;;;615626;233;26577;-69
2022/04/20 00:36:35;;;;;;;1.23;1.20;;;7.70;86.00;;;;;;615600;233;26837;-68
2022/04/20 00:39:02;;;;;;;1.60;1.50;;;7.70;85.50;;;;;;615664;234;26573;-69
2022/04/20 00:41:29;;;;;;;1.50;1.30;;;7.70;87.40;;;;;;615594;228;26818;-69
2022/04/20 00:43:56;;;;;;;1.58;1.48;;;7.60;88.30;;;;;;615574;233;26577;-68
2022/04/20 00:46:24;;;;;;;1.35;1.20;;;7.70;89.40;;;;;;615637;233;26593;-68
2022/04/20 00:48:51;;;;;;;2.50;1.40;;;7.50;87.40;;;;;;615647;232;26564;-65
2022/04/20 00:51:18;;;;;;;1.52;1.37;;;7.50;87.40;;;;;;615663;233;26566;-65
2022/04/20 00:53:46;;;;;;;1.40;1.30;;;7.50;88.10;;;;;;615605;233;26568;-65
2022/04/20 00:56:13;;;;;;;1.30;1.20;;;7.40;89.30;;;;;;615631;233;26857;-65
2022/04/20 00:58:40;;;;;;;1.12;1.12;;;7.40;88.00;;;;;;615725;233;26553;-65
2022/04/20 01:01:07;;;;;;;2.62;1.25;;;7.40;88.70;;;;;;616490;231;26797;-65
2022/04/20 01:03:35;;;;;;;1.23;1.12;;;7.40;88.60;;;;;;616980;232;26571;-65
2022/04/20 01:06:03;;;;;;;1.27;1.20;;;7.40;88.80;;;;;;616626;232;26593;-65
2022/04/20 01:08:30;;;;;;;1.25;1.17;;;7.40;88.80;;;;;;616589;232;26800;-65
2022/04/20 01:10:58;;;;;;;1.20;1.10;;;7.40;88.50;;;;;;616346;232;26585;-66
2022/04/20 01:13:25;;;;;;;1.50;1.40;;;7.40;89.30;;;;;;616275;233;26898;-65
2022/04/20 01:15:52;;;;;;;1.67;1.48;;;7.40;88.70;;;;;;616170;232;26543;-65
2022/04/20 01:18:19;;;;;;;1.37;1.20;;;7.40;89.90;;;;;;616241;232;26559;-65
2022/04/20 01:20:47;;;;;;;1.17;1.08;;;7.40;89.10;;;;;;615942;232;26601;-65
2022/04/20 01:23:15;;;;;;;1.70;1.55;;;7.40;89.70;;;;;;615963;233;26607;-65
2022/04/20 01:25:42;;;;;;;2.47;1.70;;;7.30;89.00;;;;;;615879;233;26849;-65
2022/04/20 01:28:10;;;;;;;1.30;1.30;;;7.40;89.20;;;;;;615943;233;26632;-65
2022/04/20 01:30:37;;;;;;;1.55;1.30;;;7.40;89.10;;;;;;615899;232;27043;-65
2022/04/20 01:33:04;;;;;;;1.20;1.20;;;7.30;89.30;;;;;;615859;232;26650;-65
2022/04/20 01:35:31;;;;;;;1.00;1.00;;;7.30;89.40;;;;;;615939;232;26599;-65
2022/04/20 01:37:59;;;;;;;1.55;1.40;;;7.40;89.30;;;;;;615710;233;26640;-65
2022/04/20 01:40:26;;;;;;;1.30;1.20;;;7.40;89.30;;;;;;615586;233;26569;-65
2022/04/20 01:42:53;;;;;;;1.05;1.00;;;7.40;88.80;;;;;;615656;234;26565;-65
2022/04/20 01:45:21;;;;;;;1.50;1.40;;;7.40;88.70;;;;;;615628;233;26795;-65
2022/04/20 01:47:48;;;;;;;1.52;1.42;;;7.40;88.70;;;;;;615665;234;26596;-64
2022/04/20 01:50:15;;;;;;;1.35;1.15;;;7.50;89.30;;;;;;615677;234;26565;-65
2022/04/20 01:52:43;;;;;;;0.95;0.95;;;7.40;88.70;;;;;;615685;233;26565;-65
2022/04/20 01:55:11;;;;;;;1.50;1.40;;;7.30;89.30;;;;;;615640;233;26566;-65
2022/04/20 01:57:38;;;;;;;1.10;1.10;;;7.30;89.30;;;;;;615592;233;27257;-65
2022/04/20 02:00:06;;;;;;;1.85;1.50;;;7.40;89.40;;;;;;615615;233;26560;-66
2022/04/20 02:02:34;;;;;;;1.20;1.10;;;7.40;89.50;;;;;;615647;234;26543;-65
2022/04/20 02:05:04;;;;;;;1.80;1.10;;;7.40;89.50;;;;;;615628;228;26537;-65
2022/04/20 02:07:32;;;;;;;1.17;1.10;;;7.30;89.80;;;;;;615664;234;26599;-65
2022/04/20 02:09:59;;;;;;;1.15;1.10;;;7.30;89.80;;;;;;615622;233;26564;-65
2022/04/20 02:12:26;;;;;;;1.20;1.10;;;7.20;90.30;;;;;;616296;231;26551;-65
2022/04/20 02:14:54;;;;;;;1.30;1.20;;;7.20;90.60;;;;;;617063;232;26825;-65
2022/04/20 02:17:21;;;;;;;1.30;1.30;;;7.10;90.70;;;;;;616798;232;26629;-65
2022/04/20 02:19:48;;;;;;;1.55;1.40;;;7.10;90.60;;;;;;616540;232;27103;-65
2022/04/20 02:22:16;;;;;;;1.83;1.20;;;7.10;91.00;;;;;;616385;233;26808;-65
2022/04/20 02:24:43;;;;;;;1.27;1.27;;;7.10;91.10;;;;;;616212;232;26551;-65
2022/04/20 02:27:11;;;;;;;1.62;1.30;;;7.10;91.20;;;;;;616209;232;26603;-65
2022/04/20 02:29:38;;;;;;;1.98;1.33;;;7.10;91.30;;;;;;616282;233;26563;-65
2022/04/20 02:32:07;;;;;;;1.75;1.40;;;7.10;91.30;;;;;;615953;232;26599;-65
2022/04/20 02:34:34;;;;;;;2.70;1.30;;;7.00;91.30;;;;;;615920;232;26620;-65
2022/04/20 02:37:01;;;;;;;1.10;1.10;;;7.00;91.40;;;;;;615941;233;27385;-65
2022/04/20 02:39:29;;;;;;;1.90;1.45;;;6.90;91.60;;;;;;615889;233;26612;-65
2022/04/20 02:41:57;;;;;;;1.20;1.20;;;7.00;91.70;;;;;;615955;232;26604;-65
2022/04/20 02:44:25;;;;;;;1.50;1.40;;;7.00;91.70;;;;;;615928;232;26595;-65
2022/04/20 02:46:52;;;;;;;1.00;1.00;;;7.00;91.50;;;;;;615931;232;26896;-65
2022/04/20 02:49:21;;;;;;;1.05;1.05;;;7.00;91.60;;;;;;615728;232;26564;-65
2022/04/20 02:51:47;;;;;;;1.52;1.42;;;7.00;91.60;;;;;;615620;234;26821;-66
2022/04/20 02:54:15;;;;;;;1.30;1.20;;;7.20;91.50;;;;;;615630;234;26557;-65
2022/04/20 02:56:43;;;;;;;1.67;1.35;;;7.20;91.60;;;;;;615613;233;26576;-65
2022/04/20 02:59:11;;;;;;;1.30;1.20;;;7.20;91.40;;;;;;615659;233;26593;-65
2022/04/20 03:01:38;;;;;;;1.45;1.35;;;7.20;91.40;;;;;;615601;233;27285;-65
2022/04/20 03:04:05;;;;;;;1.45;1.35;;;7.20;91.80;;;;;;615634;233;26562;-65
2022/04/20 03:06:32;;;;;;;1.83;1.62;;;7.20;91.60;;;;;;615624;233;26817;-65
2022/04/20 03:09:00;;;;;;;2.33;1.73;;;7.20;91.50;;;;;;615639;234;26565;-66
2022/04/20 03:11:27;;;;;;;1.83;1.70;;;7.20;91.60;;;;;;615678;233;26551;-65
2022/04/20 03:13:55;;;;;;;1.33;1.17;;;7.20;92.10;;;;;;615658;233;26579;-66
2022/04/20 03:16:24;;;;;;;1.00;1.00;;;7.20;91.90;;;;;;615586;233;26610;-65
2022/04/20 03:18:50;;;;;;;1.75;1.10;;;7.20;91.90;;;;;;615610;234;26815;-65
2022/04/20 03:21:17;;;;;;;1.77;1.67;;;7.20;92.40;;;;;;615676;234;26564;-65
2022/04/20 03:23:44;;;;;;;1.27;1.20;;;7.20;92.00;;;;;;616036;231;27107;-65
2022/04/20 03:26:12;;;;;;;1.40;1.30;;;7.20;92.10;;;;;;617138;233;26580;-65
2022/04/20 03:28:40;;;;;;;1.75;1.65;;;7.30;92.00;;;;;;616752;233;26608;-65
2022/04/20 03:31:07;;;;;;;1.90;1.70;;;7.30;92.00;;;;;;616522;233;26563;-65
2022/04/20 03:33:34;;;;;;;1.15;1.15;;;7.30;92.10;;;;;;616407;228;26553;-65
2022/04/20 03:36:02;;;;;;;1.00;1.00;;;7.30;92.30;;;;;;616285;232;26796;-65
2022/04/20 03:38:29;;;;;;;2.03;1.35;;;7.30;92.50;;;;;;616312;232;26575;-65
2022/04/20 03:40:56;;;;;;;1.08;1.02;;;7.20;92.50;;;;;;616254;232;26821;-65
2022/04/20 03:43:24;;;;;;;1.33;1.23;;;7.20;92.70;;;;;;615929;233;26639;-65
2022/04/20 03:45:52;;;;;;;1.58;1.48;;;7.30;92.70;;;;;;615882;233;26611;-65
2022/04/20 03:48:19;;;;;;;1.10;1.00;;;7.30;92.70;;;;;;615923;232;26613;-65
2022/04/20 03:50:47;;;;;;;0.98;0.98;;;7.40;93.30;;;;;;615936;228;26634;-65
2022/04/20 03:53:14;;;;;;;1.50;1.40;;;7.30;93.10;;;;;;616014;232;26611;-65
2022/04/20 03:55:43;;;;;;;1.62;1.52;;;7.40;92.90;;;;;;615930;232;27241;-65
2022/04/20 03:58:09;;;;;;;1.27;1.27;;;7.30;92.90;;;;;;615849;233;26846;-65
2022/04/20 04:00:37;;;;;;;1.83;1.70;;;7.30;93.20;;;;;;615764;233;26581;-65
2022/04/20 04:03:05;;;;;;;1.08;0.98;;;7.30;93.40;;;;;;615602;233;26576;-65
2022/04/20 04:05:32;;;;;;;1.20;1.20;;;7.30;93.40;;;;;;615606;234;26563;-65
2022/04/20 04:08:00;;;;;;;1.20;1.17;;;7.40;93.70;;;;;;615592;234;26603;-65
2022/04/20 04:10:27;;;;;;;1.15;1.15;;;7.30;94.20;;;;;;615647;234;26824;-65
2022/04/20 04:12:55;;;;;;;1.10;1.10;;;7.40;93.90;;;;;;615626;234;26576;-65
2022/04/20 04:15:22;;;;;;;1.35;1.17;;;7.40;93.90;;;;;;615343;234;26571;-65
2022/04/20 04:17:54;;;;;;;1.10;1.10;;;7.40;94.30;;;;;;615667;233;26598;-65
2022/04/20 04:20:19;;;;;;;1.42;1.10;;;7.50;94.40;;;;;;615299;234;27193;-65
2022/04/20 04:22:44;;;;;;;1.40;1.30;;;7.50;94.50;;;;;;615457;233;26814;-65
2022/04/20 04:25:12;;;;;;;1.20;1.20;;;7.50;93.90;;;;;;615588;234;26564;-65
2022/04/20 04:27:40;;;;;;;1.17;1.17;;;7.50;93.80;;;;;;615634;234;26613;-65
2022/04/20 04:30:08;;;;;;;1.17;1.17;;;7.50;93.80;;;;;;615664;233;26560;-65
2022/04/20 04:32:36;;;;;;;1.00;1.00;;;7.60;94.10;;;;;;615676;233;26586;-65
2022/04/20 04:35:04;;;;;;;1.10;1.10;;;7.60;94.10;;;;;;615836;231;26793;-65
2022/04/20 04:37:32;;;;;;;1.20;1.20;;;7.60;94.70;;;;;;617191;233;26826;-65
2022/04/20 04:39:59;;;;;;;1.30;1.30;;;7.70;94.10;;;;;;616666;233;26607;-65
2022/04/20 04:42:25;;;;;;;1.00;1.00;;;7.70;94.20;;;;;;616455;233;26810;-65
2022/04/20 04:44:52;;;;;;;1.15;1.15;;;7.80;93.90;;;;;;616378;232;26567;-65
2022/04/20 04:49:53;;;;;;;1.10;1.10;;;7.90;94.10;;;;;;616246;233;26577;-65
2022/04/20 04:52:21;;;;;;;1.00;1.00;;;7.80;93.80;;;;;;616233;233;26536;-65
2022/04/20 04:54:48;;;;;;;1.10;1.00;;;7.80;93.80;;;;;;615995;232;26822;-65
2022/04/20 04:57:15;;;;;;;1.00;1.00;;;7.90;94.70;;;;;;615933;233;26639;-65
2022/04/20 04:59:42;;;;;;;0.90;0.90;;;7.90;94.30;;;;;;615974;228;26840;-65
2022/04/20 05:02:09;;;;;;;1.20;1.10;;;7.90;94.50;;;;;;615940;232;26605;-65
2022/04/20 05:04:37;;;;;;;1.02;1.00;;;7.80;93.80;;;;;;615799;233;26878;-65
2022/04/20 05:07:05;;;;;;;2.15;0.98;;;7.70;94.90;;;;;;615875;232;26625;-65
2022/04/20 05:09:32;;;;;;;1.00;1.00;;;7.80;94.20;;;;;;615938;232;26618;-66
2022/04/20 05:12:01;;;;;;;1.20;1.20;;;7.70;94.20;;;;;;615797;232;26802;-66
2022/04/20 05:14:27;;;;;;;0.90;0.90;;;7.80;94.20;;;;;;615523;228;26545;-66
2022/04/20 05:16:55;;;;;;;1.30;1.20;;;7.80;94.10;;;;;;615633;233;26856;-66
2022/04/20 05:19:21;;;;;;;1.50;1.37;;;7.90;94.60;;;;;;615556;234;26581;-66
2022/04/20 05:21:49;;;;;;;5.12;1.62;;;8.00;94.10;;;;;;615677;234;26565;-69
2022/04/20 05:24:17;;;;;;;4.78;1.50;;;7.90;93.90;;;;;;615608;234;26560;-68
2022/04/20 05:26:44;;;;;;;9.40;1.50;;;7.90;94.00;;;;;;615607;234;27247;-68
2022/04/20 05:29:12;;;;;;;3.83;1.27;;;7.90;94.20;;;;;;615660;234;26575;-68
2022/04/20 05:31:39;;;;;;;4.90;1.15;;;7.90;94.20;;;;;;615610;234;26582;-68
2022/04/20 05:34:07;;;;;;;1.85;1.45;;;8.00;94.50;;;;;;615624;233;26805;-68
2022/04/20 05:41:40;;;;;;;1.67;1.30;;;8.00;93.90;;;;;;615642;234;26812;-69
2022/04/20 05:44:08;;;;;;;6.97;1.60;;;8.10;94.40;;;;;;615625;234;26562;-68
2022/04/20 05:46:36;;;;;;;2.12;1.20;;;8.20;94.00;;;;;;615528;231;26569;-68
2022/04/20 05:49:04;;;;;;;1.55;1.10;;;8.20;93.90;;;;;;617273;233;26569;-69
2022/04/20 05:51:31;;;;;;;3.62;1.20;;;8.30;93.70;;;;;;616781;233;26803;-69
2022/04/20 05:53:58;;;;;;;1.35;1.25;;;8.40;93.60;;;;;;616492;232;26560;-68
2022/04/20 05:56:26;;;;;;;3.72;1.10;;;8.40;93.60;;;;;;616442;232;26551;-69
2022/04/20 05:58:54;;;;;;;3.90;1.85;;;8.40;93.30;;;;;;616196;232;26565;-69
2022/04/20 06:01:24;;;;;;;2.42;1.60;;;8.30;93.20;;;;;;616242;233;26562;-69
2022/04/20 06:03:50;;;;;;;1.20;1.20;;;8.30;93.60;;;;;;616153;233;26551;-68
2022/04/20 06:06:18;;;;;;;1.27;1.17;;;8.20;93.50;;;;;;615979;232;26833;-68
2022/04/20 06:08:44;;;;;;;2.85;1.52;;;8.10;93.80;;;;;;615845;233;26620;-69
2022/04/20 06:11:12;;;;;;;1.48;1.40;;;8.10;93.80;;;;;;615963;233;26854;-68
2022/04/20 06:13:40;;;;;;;1.62;1.52;;;8.00;94.00;;;;;;615927;232;26604;-68
2022/04/20 06:16:08;;;;;;;2.65;1.75;;;8.10;94.00;;;;;;615863;233;26641;-68
2022/04/20 06:18:35;;;;;;;2.03;1.40;;;8.10;94.00;;;;;;615961;232;26601;-69
2022/04/20 06:21:03;;;;;;;1.52;1.42;;;8.40;94.40;;;;;;615796;231;26567;-69
2022/04/20 06:23:29;;;;;;;1.40;1.30;;;8.60;94.30;;;;;;621282;230;26877;-68
2022/04/20 06:25:56;;;;;;;1.50;1.40;;;8.70;92.60;;;;;;613883;231;26600;-68
2022/04/20 06:28:24;;;;;;;1.70;1.17;;;9.00;92.30;;;;;;613167;233;26822;-69
2022/04/20 06:30:52;;;;;;;2.20;1.50;;;9.40;91.50;;;;;;612996;232;26560;-69
2022/04/20 06:33:21;;;;;;;6.12;1.58;;;9.40;91.60;;;;;;617817;231;26583;-69
2022/04/20 06:35:47;;;;;;;15.52;2.12;;;9.30;91.20;;;;;;613896;231;26648;-67
2022/04/20 06:38:15;;;;;;;5.60;2.00;;;9.30;91.20;;;;;;621634;230;26819;-70
2022/04/20 06:40:42;;;;;;;2.05;1.30;;;9.30;92.10;;;;;;612297;234;26616;-69
2022/04/20 06:43:09;;;;;;;2.30;1.30;;;9.20;91.30;;;;;;615139;233;26886;-69
2022/04/20 06:45:37;;;;;;;1.92;1.60;;;9.30;91.30;;;;;;613192;233;26560;-70
2022/04/20 06:48:04;;;;;;;1.60;1.50;;;9.50;90.70;;;;;;615823;231;26587;-69
2022/04/20 06:50:32;;;;;;;1.20;1.20;;;9.50;91.90;;;;;;619413;227;26806;-74
2022/04/20 07:00:37;;;;;;;2.30;1.60;;;9.70;89.20;;;;;;621641;230;27023;-76
2022/04/20 07:03:06;;;;;;;1.73;1.58;;;9.70;90.10;;;;;;618068;231;26553;-75
2022/04/20 07:05:32;;;;;;;3.25;1.70;;;9.60;88.70;;;;;;615769;231;27082;-73
2022/04/20 07:08:00;;;;;;;1.98;1.62;;;9.80;88.70;;;;;;613297;233;26558;-73
2022/04/20 07:10:27;;;;;;;1.83;1.40;;;10.10;87.30;;;;;;615327;232;26536;-75
2022/04/20 07:12:55;;;;;;;1.40;1.30;;;10.00;87.10;;;;;;614450;233;26638;-76
2022/04/20 07:15:22;;;;;;;2.45;1.48;;;10.10;86.10;;;;;;614186;232;26631;-75
2022/04/20 07:17:49;;;;;;;1.60;1.50;;;10.20;85.80;;;;;;615781;231;26869;-75
2022/04/20 07:20:18;;;;;;;1.80;1.70;;;10.30;86.80;;;;;;614311;231;26547;-72
2022/04/20 07:22:47;;;;;;;1.60;1.35;;;10.50;84.10;;;;;;622351;230;26561;-73
2022/04/20 07:25:14;;;;;;;1.70;1.50;;;10.40;84.20;;;;;;622478;230;27252;-74
2022/04/20 07:27:41;;;;;;;2.87;1.67;;;10.60;83.80;;;;;;614691;231;26583;-73
2022/04/20 07:30:09;;;;;;;1.60;1.50;;;10.60;84.90;;;;;;620274;231;26563;-73
2022/04/20 07:32:36;;;;;;;2.20;1.42;;;10.70;84.40;;;;;;614788;233;26652;-73
2022/04/20 07:35:04;;;;;;;2.92;1.58;;;10.60;83.20;;;;;;614170;233;26814;-72
2022/04/20 07:37:31;;;;;;;1.50;1.40;;;10.70;82.30;;;;;;619469;231;26594;-74
2022/04/20 07:39:59;;;;;;;1.70;1.60;;;10.40;83.30;;;;;;620744;231;26604;-73
2022/04/20 07:42:27;;;;;;;1.85;1.70;;;10.40;83.00;;;;;;616989;231;26576;-74
2022/04/20 07:44:56;;;;;;;3.05;1.60;;;10.40;83.00;;;;;;621114;231;26825;-73
2022/04/20 07:47:24;;;;;;;2.67;1.92;;;10.50;82.80;;;;;;617470;231;26602;-73
2022/04/20 07:52:22;;;;;;;1.50;1.40;;;10.70;85.90;;;;;;614413;231;26608;-73
2022/04/20 07:54:50;;;;;;;1.52;1.42;;;10.90;80.20;;;;;;617476;231;26597;-73
2022/04/20 07:57:17;;;;;;;2.87;1.65;;;11.40;81.30;;;;;;614356;234;26589;-74
2022/04/20 07:59:45;;;;;;;1.23;1.23;;;11.60;77.50;;;;;;619910;231;26557;-73
2022/04/20 08:02:13;;;;;;;4.22;1.67;;;11.60;77.80;;;;;;620061;231;26622;-74
2022/04/20 08:04:41;;;;;;;3.33;1.42;;;11.80;76.60;;;;;;617498;231;26558;-73
2022/04/20 08:07:08;;;;;;;1.62;1.45;;;11.80;76.40;;;;;;615378;231;26869;-74
2022/04/20 08:09:36;;;;;;;1.95;1.80;;;11.90;75.40;;;;;;614768;234;26570;-74
2022/04/20 08:12:03;;;;;;;1.77;1.45;;;11.90;74.00;;;;;;615148;231;26793;-74
2022/04/20 08:14:30;;;;;;;2.30;1.35;;;12.00;73.70;;;;;;619732;231;26835;-74
2022/04/20 08:16:58;;;;;;;2.35;1.52;;;12.20;72.30;;;;;;613264;233;26575;-76
2022/04/20 08:19:26;;;;;;;1.73;1.62;;;12.30;70.20;;;;;;613971;231;26568;-75
2022/04/20 08:21:53;;;;;;;1.62;1.52;;;12.40;71.00;;;;;;615855;231;26563;-74
2022/04/20 08:24:20;;;;;;;2.05;1.33;;;12.60;69.20;;;;;;619810;231;26602;-74
2022/04/20 08:26:48;;;;;;;1.60;1.50;;;12.70;65.10;;;;;;614275;233;26639;-75
2022/04/20 08:29:16;;;;;;;1.95;1.85;;;12.70;63.50;;;;;;614034;233;26670;-75
2022/04/20 08:31:44;;;;;;;2.12;1.65;;;12.80;66.20;;;;;;619518;227;26586;-74
2022/04/20 08:34:13;;;;;;;1.23;1.23;;;13.00;68.10;;;;;;620490;231;26810;-75
2022/04/20 08:36:40;;;;;;;1.75;1.65;;;13.00;67.80;;;;;;615904;232;26643;-75
2022/04/20 08:39:08;;;;;;;2.47;1.30;;;13.30;64.20;;;;;;615854;232;26613;-75
2022/04/20 08:41:36;;;;;;;2.90;1.60;;;13.20;64.10;;;;;;613517;229;26563;-75
2022/04/20 08:44:04;;;;;;;2.50;1.55;;;13.00;62.50;;;;;;613011;233;26559;-74
2022/04/20 08:46:32;;;;;;;1.92;1.30;;;13.00;62.40;;;;;;617386;231;26855;-75
2022/04/20 08:48:59;;;;;;;2.45;1.62;;;12.90;63.50;;;;;;621040;231;26604;-74
2022/04/20 08:52:37;;;;;;;1.90;1.70;;;13.10;63.80;;;;;;617782;231;26787;-75
2022/04/20 08:53:53;;;;;;;4.20;1.50;;;13.00;66.60;;;;;;613024;230;26590;-73
2022/04/20 08:58:54;;;;;;;81.78;11.95;;;12.70;63.30;;;;;;621195;231;26564;-70
2022/04/20 09:01:21;;;;;;;104.65;18.98;;;12.60;63.20;;;;;;621067;231;26594;-71
2022/04/20 09:03:48;;;;;;;1829.82;190.25;;;12.60;63.80;;;;;;620861;231;27234;-70
2022/04/20 09:06:15;;;;;;;1999.90;334.62;;;12.50;65.80;;;;;;620705;231;26632;-71
2022/04/20 09:08:44;;;;;;;216.73;32.22;;;12.50;72.00;;;;;;620924;231;26619;-70
2022/04/20 09:11:11;;;;;;;102.60;22.75;;;12.60;71.80;;;;;;621094;231;26635;-71
2022/04/20 09:13:41;;;;;;;45.80;11.85;;;12.60;75.70;;;;;;620921;231;26636;-72
2022/04/20 09:16:08;;;;;;;73.28;18.50;;;12.60;74.20;;;;;;621014;230;26629;-74
2022/04/20 09:18:36;;;;;;;34.30;9.38;;;12.70;73.20;;;;;;621029;231;26591;-72
2022/04/20 09:21:06;;;;;;;20.70;7.50;;;12.60;78.30;;;;;;621030;231;26613;-73
2022/04/20 09:23:34;;;;;;;41.65;12.50;;;12.60;78.00;;;;;;622852;229;26597;-73
2022/04/20 09:26:15;;;;;;;26.48;10.40;;;12.70;75.20;;;;;;622266;231;26563;-72
2022/04/20 09:28:44;;;;;;;46.40;12.82;;;12.70;75.50;;;;;;622062;231;26823;-73
2022/04/20 09:31:11;;;;;;;19.80;5.60;;;12.60;78.70;;;;;;618695;231;26617;-73
2022/04/20 09:33:41;;;;;;;33.22;10.73;;;12.60;82.20;;;;;;621717;231;26614;-75
2022/04/20 09:36:09;;;;;;;41.55;12.68;;;12.60;78.60;;;;;;621689;231;26626;-74
2022/04/20 09:38:39;;;;;;;40.22;12.30;;;12.70;78.10;;;;;;621766;231;26656;-72
2022/04/20 09:41:05;;;;;;;37.28;12.18;;;12.90;84.70;;;;;;621351;231;26564;-72
2022/04/20 09:43:32;;;;;;;24.15;8.35;;;13.30;83.40;;;;;;621458;231;26572;-71
2022/04/20 09:46:04;;;;;;;10.73;4.75;;;13.30;83.10;;;;;;621324;231;26550;-69
2022/04/20 09:51:09;;;;;;;18.70;6.40;;;13.30;84.00;;;;;;621383;231;26567;-72
2022/04/20 09:53:37;;;;;;;9.80;4.15;;;13.30;78.40;;;;;;620712;231;26559;-73
2022/04/20 09:56:15;;;;;;;6.18;2.72;;;13.40;82.10;;;;;;621343;231;26821;-72
2022/04/20 09:58:43;;;;;;;6.62;3.28;;;13.60;80.70;;;;;;621269;231;26564;-73
2022/04/20 10:01:10;;;;;;;8.80;2.95;;;13.90;79.80;;;;;;621061;231;26629;-72
2022/04/20 10:03:39;;;;;;;10.45;4.90;;;13.80;79.60;;;;;;619251;231;26629;-73
2022/04/20 10:06:07;;;;;;;7.10;4.25;;;14.00;79.40;;;;;;621033;231;26637;-72
2022/04/20 10:08:34;;;;;;;7.12;2.40;;;14.10;81.90;;;;;;621040;231;26596;-72
2022/04/20 10:11:01;;;;;;;4.35;2.22;;;14.00;81.80;;;;;;621090;231;26848;-72
2022/04/20 10:13:28;;;;;;;3.55;2.72;;;14.20;80.00;;;;;;621169;231;26651;-72
2022/04/20 10:18:28;;;;;;;7.05;2.97;;;14.60;78.20;;;;;;621528;231;26580;-72
2022/04/20 10:20:56;;;;;;;8.65;2.55;;;14.50;77.40;;;;;;621252;231;26838;-72
2022/04/20 10:23:23;;;;;;;2.97;2.10;;;14.40;78.80;;;;;;620980;231;26608;-72
2022/04/20 10:25:50;;;;;;;4.57;2.00;;;14.50;80.40;;;;;;621041;231;26851;-72
2022/04/20 10:28:18;;;;;;;3.78;2.35;;;14.60;78.10;;;;;;621119;226;26630;-72
2022/04/20 10:30:52;;;;;;;6.90;2.17;;;14.70;78.30;;;;;;620646;231;26781;-72
2022/04/20 10:33:20;;;;;;;2.42;1.60;;;14.90;78.60;;;;;;621134;229;26594;-71
2022/04/20 10:35:54;;;;;;;5.37;2.22;;;14.70;76.90;;;;;;622609;231;26570;-72
2022/04/20 10:38:22;;;;;;;7.03;2.47;;;14.40;78.50;;;;;;622290;230;26557;-72
2022/04/20 10:40:59;;;;;;;3.33;2.10;;;14.10;79.60;;;;;;621958;231;27220;-72
2022/04/20 10:43:26;;;;;;;7.40;2.67;;;13.80;80.10;;;;;;621841;230;26621;-71
2022/04/20 10:46:16;;;;;;;2.87;1.80;;;13.50;80.80;;;;;;621677;231;26912;-72
2022/04/20 10:48:55;;;;;;;3.85;1.85;;;13.10;81.80;;;;;;621691;231;26610;-72
2022/04/20 10:51:22;;;;;;;3.20;2.10;;;12.80;84.80;;;;;;621549;231;26632;-72
2022/04/20 10:53:48;;;;;;;7.40;2.50;;;12.80;83.30;;;;;;621439;230;26543;-74
2022/04/20 10:56:15;;;;;;;7.40;2.12;;;12.90;82.00;;;;;;621382;230;26631;-72
2022/04/20 10:58:52;;;;;;;6.68;2.37;;;13.00;84.50;;;;;;621335;231;26567;-72
2022/04/20 11:01:21;;;;;;;4.90;2.15;;;13.40;82.40;;;;;;620368;231;26570;-72
2022/04/20 11:04:05;;;;;;;7.10;2.65;;;13.40;82.30;;;;;;621377;231;26606;-72
2022/04/20 11:06:44;;;;;;;5.18;2.30;;;13.50;79.10;;;;;;621258;231;26594;-73
2022/04/20 11:09:11;;;;;;;4.43;2.55;;;13.60;77.50;;;;;;621359;231;26816;-72
2022/04/20 11:19:36;;;;;;;2.87;2.20;;;13.60;76.50;;;;;;621552;231;26834;-72
2022/04/20 11:22:06;;;;;;;3.67;2.20;;;13.70;76.20;;;;;;621504;231;26577;-72
2022/04/20 11:24:33;;;;;;;3.58;2.12;;;13.80;74.40;;;;;;621456;231;26585;-71
2022/04/20 11:27:00;;;;;;;5.10;2.42;;;13.70;78.20;;;;;;621490;231;26615;-72
2022/04/20 11:29:28;;;;;;;3.28;2.08;;;13.90;77.40;;;;;;621269;231;26814;-73
2022/04/20 11:31:57;;;;;;;3.03;1.92;;;13.90;77.40;;;;;;621151;231;26807;-72
2022/04/20 11:34:22;;;;;;;3.53;1.90;;;14.10;76.20;;;;;;621094;230;26616;-72
2022/04/20 11:36:51;;;;;;;4.22;2.00;;;14.00;74.30;;;;;;621171;231;26864;-72
2022/04/20 11:39:17;;;;;;;2.50;1.87;;;13.10;75.60;;;;;;621090;231;26615;-72
2022/04/20 11:41:44;;;;;;;2.92;1.58;;;12.90;75.70;;;;;;621167;231;27074;-72
2022/04/20 11:44:19;;;;;;;4.70;2.17;;;13.00;76.80;;;;;;621129;231;26554;-72
2022/04/20 11:46:44;;;;;;;4.25;2.05;;;13.30;76.40;;;;;;622850;229;26667;-72
2022/04/20 11:49:12;;;;;;;4.35;1.80;;;13.70;74.40;;;;;;622264;231;26545;-71
2022/04/20 11:51:39;;;;;;;4.35;2.28;;;13.70;74.30;;;;;;622057;230;26824;-71
2022/04/20 11:54:07;;;;;;;3.40;1.90;;;13.90;75.20;;;;;;621420;231;26620;-71
2022/04/20 11:56:37;;;;;;;2.95;1.90;;;14.20;73.30;;;;;;621693;231;26917;-71
2022/04/20 11:59:06;;;;;;;2.28;1.80;;;14.10;72.60;;;;;;621737;230;26587;-71
2022/04/20 12:01:33;;;;;;;3.12;1.50;;;14.10;72.70;;;;;;621754;230;26610;-71
2022/04/20 12:04:04;;;;;;;3.17;1.92;;;14.40;73.60;;;;;;621418;231;26799;-72
2022/04/20 12:06:29;;;;;;;2.00;1.80;;;14.60;72.10;;;;;;620817;231;26794;-71
2022/04/20 12:08:56;;;;;;;2.22;1.75;;;14.50;73.30;;;;;;621511;231;26629;-71
2022/04/20 12:11:23;;;;;;;2.08;1.77;;;14.60;71.00;;;;;;621517;231;26794;-72
2022/04/20 12:13:54;;;;;;;1.95;1.70;;;14.30;71.20;;;;;;621444;231;26620;-72
2022/04/20 12:16:20;;;;;;;2.97;2.10;;;14.10;72.60;;;;;;621363;231;26581;-72
2022/04/20 12:18:48;;;;;;;2.95;1.70;;;14.00;72.10;;;;;;621475;231;26580;-72
2022/04/20 12:21:28;;;;;;;3.08;1.60;;;14.20;71.20;;;;;;621349;231;26595;-73
2022/04/20 12:23:55;;;;;;;1.73;1.50;;;14.10;71.10;;;;;;621140;231;26554;-72
2022/04/20 12:26:27;;;;;;;6.25;2.03;;;13.90;70.90;;;;;;621425;231;26842;-72
2022/04/20 12:28:59;;;;;;;3.80;1.90;;;14.60;70.30;;;;;;621260;231;26551;-69
2022/04/20 12:31:27;;;;;;;6.60;2.08;;;14.60;70.40;;;;;;621132;226;26805;-71
2022/04/20 12:34:00;;;;;;;6.12;2.20;;;14.90;69.20;;;;;;621029;231;26628;-71
2022/04/20 12:36:31;;;;;;;6.87;2.45;;;14.90;69.00;;;;;;621051;231;26637;-71
2022/04/20 12:38:56;;;;;;;6.65;1.92;;;15.00;69.00;;;;;;620938;231;26618;-71
2022/04/20 12:41:35;;;;;;;2.97;1.55;;;15.00;68.20;;;;;;621145;231;26607;-71
2022/04/20 12:44:02;;;;;;;5.43;1.77;;;15.00;68.20;;;;;;621114;231;26627;-71
2022/04/20 12:46:33;;;;;;;5.03;1.77;;;14.90;69.40;;;;;;621134;231;26626;-71
2022/04/20 12:48:58;;;;;;;2.62;1.80;;;14.90;69.40;;;;;;621141;230;26628;-67
2022/04/20 12:51:26;;;;;;;2.67;1.83;;;15.10;68.20;;;;;;621152;231;26623;-67
2022/04/20 12:53:55;;;;;;;2.70;1.73;;;15.40;67.10;;;;;;621119;231;26593;-67
2022/04/20 13:02:04;;;;;;;2.05;1.80;;;15.10;67.70;;;;;;622290;231;26565;-67
2022/04/20 13:04:14;;;;;;;3.05;1.92;;;15.10;67.70;;;;;;620851;231;26833;-67
2022/04/20 13:06:42;;;;;;;4.78;1.80;;;14.70;68.10;;;;;;621867;230;26635;-67
2022/04/20 13:09:09;;;;;;;3.97;1.67;;;14.70;68.10;;;;;;621747;231;27130;-67
2022/04/20 13:11:36;;;;;;;2.00;1.70;;;14.70;67.90;;;;;;621803;231;26621;-67
2022/04/20 13:14:03;;;;;;;1.98;1.77;;;14.50;68.00;;;;;;621641;231;26862;-68
2022/04/20 13:16:31;;;;;;;3.92;1.85;;;14.60;67.90;;;;;;621400;231;26557;-67
2022/04/20 13:18:59;;;;;;;9.82;2.17;;;14.50;67.50;;;;;;621456;231;26801;-68
2022/04/20 13:21:26;;;;;;;11.63;3.05;;;14.60;67.70;;;;;;621375;227;26550;-68
2022/04/20 13:23:54;;;;;;;9.18;2.72;;;14.60;67.70;;;;;;621275;231;26582;-69
2022/04/20 13:28:55;;;;;;;5.50;1.90;;;14.80;66.20;;;;;;621441;231;26568;-68
2022/04/20 13:31:22;;;;;;;2.90;1.98;;;14.60;66.80;;;;;;621336;231;26559;-68
2022/04/20 13:33:50;;;;;;;3.60;1.70;;;14.60;66.50;;;;;;621141;231;26558;-68
2022/04/20 13:36:18;;;;;;;3.75;1.52;;;14.50;67.60;;;;;;621126;231;26622;-68